createdAt,value
2022-10-23T00:00:34.108Z,28.00
2022-10-23T00:03:01.042Z,29.17
2022-10-23T00:05:28.965Z,29.60
2022-10-23T00:07:58.605Z,27.87
2022-10-23T00:10:27.574Z,28.52
2022-10-23T00:12:54.835Z,30.73
2022-10-23T00:15:23.666Z,29.83
2022-10-23T00:17:50.665Z,29.87
2022-10-23T00:20:18.106Z,30.00
2022-10-23T00:22:45.076Z,29.05
2022-10-23T00:25:13.813Z,28.73
2022-10-23T00:27:41.277Z,27.30
2022-10-23T00:30:08.741Z,27.37
2022-10-23T00:32:35.609Z,26.67
2022-10-23T00:35:02.420Z,25.20
2022-10-23T00:37:29.339Z,24.83
2022-10-23T00:39:56.236Z,25.67
2022-10-23T00:42:23.503Z,26.75
2022-10-23T00:44:50.310Z,26.45
2022-10-23T00:47:18.440Z,24.30
2022-10-23T00:49:45.228Z,25.65
2022-10-23T00:52:14.056Z,24.77
2022-10-23T00:54:43.362Z,28.02
2022-10-23T00:57:14.008Z,29.00
2022-10-23T00:59:40.941Z,25.17
2022-10-23T01:02:08.724Z,23.85
2022-10-23T01:04:36.591Z,22.13
2022-10-23T01:07:22.883Z,22.70
2022-10-23T01:10:12.845Z,22.92
2022-10-23T01:12:50.742Z,20.88
2022-10-23T01:15:31.112Z,21.37
2022-10-23T01:18:13.377Z,20.53
2022-10-23T01:20:46.531Z,19.77
2022-10-23T01:23:35.358Z,21.48
2022-10-23T01:26:14.500Z,20.70
2022-10-23T01:28:50.825Z,21.15
2022-10-23T01:31:25.804Z,22.43
2022-10-23T01:33:58.904Z,25.30
2022-10-23T01:36:29.389Z,24.77
2022-10-23T01:39:01.650Z,22.02
2022-10-23T01:41:34.603Z,23.75
2022-10-23T01:44:09.079Z,23.47
2022-10-23T01:46:37.504Z,25.17
2022-10-23T01:49:08.889Z,24.87
2022-10-23T01:51:38.606Z,24.15
2022-10-23T01:54:09.868Z,25.42
2022-10-23T01:56:39.519Z,23.77
2022-10-23T01:59:11.752Z,23.60
2022-10-23T02:01:44.348Z,23.48
2022-10-23T02:04:15.046Z,23.10
2022-10-23T02:06:41.897Z,22.60
2022-10-23T02:09:08.902Z,21.27
2022-10-23T02:11:42.981Z,21.15
2022-10-23T02:14:59.487Z,20.95
2022-10-23T02:18:03.879Z,20.48
2022-10-23T02:20:55.567Z,21.83
2022-10-23T02:23:28.248Z,21.37
2022-10-23T02:26:02.296Z,21.85
2022-10-23T02:28:36.969Z,21.25
2022-10-23T02:31:05.419Z,21.33
2022-10-23T02:33:33.980Z,20.15
2022-10-23T02:36:04.075Z,19.57
2022-10-23T02:38:57.400Z,19.67
2022-10-23T02:41:29.354Z,18.37
2022-10-23T02:44:14.163Z,20.25
2022-10-23T02:46:58.263Z,19.37
2022-10-23T02:49:34.108Z,20.17
2022-10-23T02:52:08.947Z,19.70
2022-10-23T02:54:41.820Z,18.10
2022-10-23T02:57:22.648Z,19.52
2022-10-23T02:59:55.806Z,18.92
2022-10-23T03:02:37.983Z,19.60
2022-10-23T03:05:09.916Z,18.85
2022-10-23T03:07:38.668Z,19.73
2022-10-23T03:10:06.201Z,19.62
2022-10-23T03:12:33.110Z,20.08
2022-10-23T03:14:59.912Z,18.83
2022-10-23T03:17:26.729Z,17.50
2022-10-23T03:19:53.653Z,17.52
2022-10-23T03:22:20.408Z,17.27
2022-10-23T03:24:47.138Z,16.37
2022-10-23T03:27:14.002Z,17.30
2022-10-23T03:29:40.797Z,15.93
2022-10-23T03:32:07.641Z,17.45
2022-10-23T03:34:35.738Z,17.20
2022-10-23T03:37:02.597Z,15.98
2022-10-23T03:39:29.521Z,14.70
2022-10-23T03:41:56.462Z,14.82
2022-10-23T03:44:23.246Z,16.00
2022-10-23T03:46:49.973Z,17.52
2022-10-23T03:49:16.776Z,17.23
2022-10-23T03:51:44.861Z,16.70
2022-10-23T03:54:11.773Z,18.62
2022-10-23T03:56:38.496Z,20.35
2022-10-23T03:59:05.257Z,16.58
2022-10-23T04:01:32.076Z,19.48
2022-10-23T04:03:58.881Z,20.13
2022-10-23T04:06:25.770Z,20.90
2022-10-23T04:08:52.618Z,22.60
2022-10-23T04:11:19.365Z,19.95
2022-10-23T04:13:46.420Z,19.12
2022-10-23T04:16:13.344Z,22.13
2022-10-23T04:18:41.590Z,39.10
2022-10-23T04:21:09.189Z,39.58
2022-10-23T04:23:36.263Z,41.05
2022-10-23T04:26:03.103Z,34.80
2022-10-23T04:28:30.070Z,24.90
2022-10-23T04:30:59.085Z,20.42
2022-10-23T04:33:25.966Z,19.48
2022-10-23T04:35:52.793Z,18.00
2022-10-23T04:38:19.508Z,17.23
2022-10-23T04:40:46.474Z,16.93
2022-10-23T04:43:13.264Z,17.05
2022-10-23T04:45:40.050Z,16.45
2022-10-23T04:48:06.828Z,16.45
2022-10-23T04:50:33.575Z,15.45
2022-10-23T04:53:00.342Z,15.93
2022-10-23T04:55:27.188Z,16.35
2022-10-23T04:57:53.986Z,16.35
2022-10-23T05:00:20.968Z,15.57
2022-10-23T05:02:47.834Z,15.00
2022-10-23T05:05:18.120Z,15.10
2022-10-23T05:07:45.262Z,15.10
2022-10-23T05:10:12.242Z,14.77
2022-10-23T05:12:38.976Z,13.93
2022-10-23T05:15:06.451Z,14.87
2022-10-23T05:17:37.411Z,15.37
2022-10-23T05:20:09.770Z,15.07
2022-10-23T05:22:39.258Z,16.60
2022-10-23T05:25:06.135Z,14.02
2022-10-23T05:27:33.062Z,13.77
2022-10-23T05:30:00.091Z,14.87
2022-10-23T05:32:29.684Z,15.52
2022-10-23T05:34:56.943Z,14.93
2022-10-23T05:37:23.898Z,14.80
2022-10-23T05:39:50.814Z,15.82
2022-10-23T05:42:17.798Z,17.12
2022-10-23T05:44:44.616Z,17.15
2022-10-23T05:47:11.411Z,19.12
2022-10-23T05:49:38.140Z,17.40
2022-10-23T05:52:05.243Z,16.25
2022-10-23T05:54:32.081Z,16.35
2022-10-23T05:56:58.875Z,14.82
2022-10-23T05:59:25.686Z,16.45
2022-10-23T06:01:52.659Z,14.87
2022-10-23T06:04:19.598Z,16.45
2022-10-23T06:06:47.119Z,15.85
2022-10-23T06:09:15.362Z,15.95
2022-10-23T06:11:42.696Z,15.57
2022-10-23T06:14:09.517Z,14.73
2022-10-23T06:16:36.437Z,15.45
2022-10-23T06:19:03.614Z,15.13
2022-10-23T06:21:30.332Z,15.05
2022-10-23T06:23:57.278Z,14.85
2022-10-23T06:26:24.049Z,14.73
2022-10-23T06:28:50.890Z,14.95
2022-10-23T06:31:19.678Z,15.02
2022-10-23T06:33:46.571Z,16.85
2022-10-23T06:36:13.369Z,16.65
2022-10-23T06:38:40.767Z,16.37
2022-10-23T06:41:13.309Z,16.00
2022-10-23T06:43:40.157Z,17.45
2022-10-23T06:46:07.154Z,18.33
2022-10-23T06:48:34.143Z,18.48
2022-10-23T06:51:07.048Z,22.27
2022-10-23T06:53:34.295Z,24.02
2022-10-23T06:56:02.237Z,22.65
2022-10-23T06:58:29.191Z,21.27
2022-10-23T07:00:59.734Z,22.73
2022-10-23T07:03:26.621Z,22.17
2022-10-23T07:05:53.439Z,20.80
2022-10-23T07:08:20.375Z,20.62
2022-10-23T07:10:48.520Z,20.62
2022-10-23T07:13:15.387Z,21.55
2022-10-23T07:15:42.180Z,20.67
2022-10-23T07:18:14.551Z,20.35
2022-10-23T07:20:41.988Z,20.02
2022-10-23T07:23:11.172Z,18.17
2022-10-23T07:25:38.282Z,19.05
2022-10-23T07:28:05.389Z,17.40
2022-10-23T07:30:32.141Z,17.30
2022-10-23T07:32:59.207Z,17.02
2022-10-23T07:35:25.976Z,19.05
2022-10-23T07:37:52.977Z,20.55
2022-10-23T07:40:19.852Z,21.07
2022-10-23T07:42:46.587Z,18.75
2022-10-23T07:45:13.356Z,19.23
2022-10-23T07:47:40.399Z,18.70
2022-10-23T07:50:08.200Z,18.95
2022-10-23T07:52:36.409Z,16.00
2022-10-23T07:55:03.633Z,16.25
2022-10-23T07:57:30.533Z,15.63
2022-10-23T07:59:57.531Z,15.75
2022-10-23T08:02:24.392Z,16.20
2022-10-23T08:04:51.353Z,15.43
2022-10-23T08:07:18.247Z,15.63
2022-10-23T08:09:45.192Z,15.88
2022-10-23T08:12:11.932Z,14.87
2022-10-23T08:14:38.826Z,14.07
2022-10-23T08:17:05.742Z,14.47
2022-10-23T08:19:32.755Z,14.05
2022-10-23T08:21:59.590Z,15.80
2022-10-23T08:24:26.384Z,15.73
2022-10-23T08:26:53.168Z,15.82
2022-10-23T08:29:19.926Z,15.33
2022-10-23T08:31:46.942Z,14.77
2022-10-23T08:34:15.393Z,15.02
2022-10-23T08:36:42.281Z,14.40
2022-10-23T08:39:09.660Z,14.07
2022-10-23T08:41:40.400Z,14.67
2022-10-23T08:44:18.264Z,14.20
2022-10-23T08:46:50.689Z,15.20
2022-10-23T08:49:20.500Z,14.50
2022-10-23T08:51:51.855Z,13.95
2022-10-23T08:54:28.082Z,15.03
2022-10-23T08:57:02.754Z,15.00
2022-10-23T08:59:44.384Z,14.45
2022-10-23T09:02:17.974Z,14.93
2022-10-23T09:04:47.528Z,14.68
2022-10-23T09:07:39.543Z,15.37
2022-10-23T09:10:36.726Z,15.50
2022-10-23T09:13:16.350Z,14.52
2022-10-23T09:15:47.996Z,14.30
2022-10-23T09:18:16.749Z,15.38
2022-10-23T09:20:46.213Z,14.83
2022-10-23T09:23:16.875Z,16.12
2022-10-23T09:25:45.602Z,15.88
2022-10-23T09:28:20.156Z,15.50
2022-10-23T09:30:48.127Z,16.15
2022-10-23T09:33:19.130Z,15.73
2022-10-23T09:35:54.827Z,15.20
2022-10-23T09:38:27.799Z,13.32
2022-10-23T09:40:55.328Z,13.68
2022-10-23T09:43:24.170Z,14.13
2022-10-23T09:46:03.312Z,13.60
2022-10-23T09:48:30.181Z,13.70
2022-10-23T09:51:03.283Z,13.82
2022-10-23T09:53:48.159Z,13.90
2022-10-23T09:56:34.024Z,13.27
2022-10-23T09:59:13.049Z,12.67
2022-10-23T10:02:13.808Z,12.93
2022-10-23T10:04:41.817Z,13.07
2022-10-23T10:07:36.703Z,14.32
2022-10-23T10:10:13.922Z,13.07
2022-10-23T10:13:25.542Z,12.80
2022-10-23T10:15:58.149Z,12.80
2022-10-23T10:18:37.384Z,13.93
2022-10-23T10:21:51.083Z,12.82
2022-10-23T10:24:28.194Z,12.60
2022-10-23T10:27:03.928Z,13.20
2022-10-23T10:29:41.657Z,14.02
2022-10-23T10:32:20.414Z,12.35
2022-10-23T10:35:24.801Z,13.95
2022-10-23T10:37:57.411Z,13.35
2022-10-23T10:40:38.458Z,13.70
2022-10-23T10:43:23.819Z,13.93
2022-10-23T10:46:10.267Z,14.18
2022-10-23T10:48:52.517Z,13.43
2022-10-23T10:52:01.411Z,13.90
2022-10-23T10:55:05.569Z,12.87
2022-10-23T10:57:38.318Z,12.48
2022-10-23T11:00:14.949Z,11.88
2022-10-23T11:03:00.832Z,11.60
2022-10-23T11:05:32.536Z,10.98
2022-10-23T11:08:17.858Z,13.13
2022-10-23T11:10:47.385Z,11.45
2022-10-23T11:13:37.886Z,11.18
2022-10-23T11:16:12.780Z,10.25
2022-10-23T11:18:44.115Z,10.90
2022-10-23T11:21:25.849Z,7.27
2022-10-23T11:24:15.445Z,6.57
2022-10-23T11:27:00.033Z,6.32
2022-10-23T11:29:35.829Z,7.10
2022-10-23T11:32:24.425Z,7.12
2022-10-23T11:35:03.943Z,7.30
2022-10-23T11:37:30.959Z,6.47
2022-10-23T11:40:06.539Z,6.00
2022-10-23T11:42:47.176Z,6.20
2022-10-23T11:45:32.034Z,5.60
2022-10-23T11:48:05.556Z,5.20
2022-10-23T11:50:49.938Z,6.00
2022-10-23T11:53:31.567Z,5.80
2022-10-23T11:56:03.928Z,6.10
2022-10-23T11:58:48.590Z,6.03
2022-10-23T12:01:19.912Z,6.07
2022-10-23T12:03:58.003Z,5.55
2022-10-23T12:06:28.849Z,5.60
2022-10-23T12:09:01.873Z,6.43
2022-10-23T12:11:43.986Z,5.40
2022-10-23T12:14:26.706Z,5.50
2022-10-23T12:16:54.063Z,6.20
2022-10-23T12:19:23.674Z,5.47
2022-10-23T12:21:53.650Z,6.25
2022-10-23T12:24:58.404Z,5.85
2022-10-23T12:27:38.187Z,6.00
2022-10-23T12:31:04.497Z,5.65
2022-10-23T12:33:50.106Z,5.87
2022-10-23T12:36:41.938Z,5.80
2022-10-23T12:39:28.212Z,4.97
2022-10-23T12:41:56.409Z,5.00
2022-10-23T12:44:25.720Z,4.90
2022-10-23T12:46:58.248Z,5.00
2022-10-23T12:49:27.982Z,6.22
2022-10-23T12:52:00.942Z,3.85
2022-10-23T12:54:30.589Z,4.17
2022-10-23T12:56:57.962Z,4.47
2022-10-23T12:59:28.362Z,3.42
2022-10-23T13:01:55.897Z,4.43
2022-10-23T13:04:29.148Z,4.40
2022-10-23T13:06:59.191Z,4.57
2022-10-23T13:09:40.803Z,4.80
2022-10-23T13:12:16.297Z,4.93
2022-10-23T13:14:56.928Z,3.92
2022-10-23T13:17:38.766Z,4.90
2022-10-23T13:20:22.326Z,4.83
2022-10-23T13:23:09.235Z,4.87
2022-10-23T13:25:39.043Z,4.75
2022-10-23T13:28:25.813Z,4.45
2022-10-23T13:31:10.587Z,4.43
2022-10-23T13:33:52.639Z,3.90
2022-10-23T13:36:23.196Z,4.05
2022-10-23T13:39:02.158Z,4.25
2022-10-23T13:41:36.897Z,3.60
2022-10-23T13:44:04.250Z,3.95
2022-10-23T13:46:32.394Z,4.17
2022-10-23T13:48:59.634Z,3.92
2022-10-23T13:51:37.571Z,4.62
2022-10-23T13:54:15.313Z,5.10
2022-10-23T13:56:43.041Z,5.60
2022-10-23T13:59:11.175Z,5.43
2022-10-23T14:01:39.347Z,6.12
2022-10-23T14:04:07.763Z,5.78
2022-10-23T14:06:37.588Z,5.93
2022-10-23T14:09:16.334Z,5.82
2022-10-23T14:11:44.130Z,7.57
2022-10-23T14:14:11.809Z,10.15
2022-10-23T14:16:39.960Z,7.95
2022-10-23T14:19:07.991Z,6.35
2022-10-23T14:21:35.528Z,6.43
2022-10-23T14:24:02.960Z,8.53
2022-10-23T14:26:30.472Z,7.57
2022-10-23T14:29:02.299Z,6.12
2022-10-23T14:31:38.253Z,8.93
2022-10-23T14:34:05.862Z,11.27
2022-10-23T14:36:43.274Z,11.10
2022-10-23T14:39:18.870Z,7.95
2022-10-23T14:41:47.850Z,8.77
2022-10-23T14:44:15.410Z,7.10
2022-10-23T14:46:45.199Z,7.57
2022-10-23T14:49:13.495Z,7.30
2022-10-23T14:51:41.193Z,7.80
2022-10-23T14:54:09.681Z,8.00
2022-10-23T14:56:40.035Z,8.18
2022-10-23T14:59:09.620Z,8.38
2022-10-23T15:01:43.748Z,10.03
2022-10-23T15:04:17.241Z,16.55
2022-10-23T15:06:47.172Z,11.70
2022-10-23T15:09:15.028Z,8.90
2022-10-23T15:11:42.852Z,8.50
2022-10-23T15:14:12.268Z,8.07
2022-10-23T15:16:43.182Z,7.15
2022-10-23T15:19:15.459Z,7.22
2022-10-23T15:21:47.175Z,7.50
2022-10-23T15:24:18.485Z,8.93
2022-10-23T15:26:46.500Z,10.13
2022-10-23T15:29:15.048Z,9.52
2022-10-23T15:31:45.889Z,9.93
2022-10-23T15:34:19.882Z,9.10
2022-10-23T15:36:48.878Z,9.68
2022-10-23T15:39:22.265Z,9.60
2022-10-23T15:41:53.634Z,28.08
2022-10-23T15:44:25.245Z,41.30
2022-10-23T15:46:57.369Z,20.42
2022-10-23T15:49:26.838Z,15.98
2022-10-23T15:51:55.883Z,12.97
2022-10-23T15:54:28.044Z,15.52
2022-10-23T15:56:59.207Z,17.60
2022-10-23T15:59:27.644Z,13.98
2022-10-23T16:01:55.916Z,12.32
2022-10-23T16:04:24.942Z,12.33
2022-10-23T16:06:52.619Z,11.48
2022-10-23T16:09:20.437Z,11.88
2022-10-23T16:11:49.211Z,13.75
2022-10-23T16:14:17.981Z,14.27
2022-10-23T16:16:45.826Z,17.07
2022-10-23T16:19:17.751Z,15.65
2022-10-23T16:21:45.564Z,15.70
2022-10-23T16:24:13.049Z,16.75
2022-10-23T16:26:41.215Z,17.33
2022-10-23T16:29:10.017Z,15.73
2022-10-23T16:31:38.927Z,16.62
2022-10-23T16:34:07.572Z,16.95
2022-10-23T16:36:39.140Z,16.02
2022-10-23T16:39:09.882Z,15.63
2022-10-23T16:41:37.265Z,15.17
2022-10-23T16:44:06.820Z,14.40
2022-10-23T16:46:36.078Z,14.23
2022-10-23T16:49:04.243Z,16.27
2022-10-23T16:51:32.439Z,17.05
2022-10-23T16:54:01.916Z,18.20
2022-10-23T16:56:31.358Z,31.05
2022-10-23T16:59:00.553Z,44.40
2022-10-23T17:01:32.017Z,29.02
2022-10-23T17:04:00.922Z,28.85
2022-10-23T17:06:32.551Z,48.53
2022-10-23T17:09:02.133Z,50.60
2022-10-23T17:11:36.081Z,37.70
2022-10-23T17:14:29.848Z,30.00
2022-10-23T17:17:01.851Z,33.65
2022-10-23T17:19:47.221Z,39.93
2022-10-23T17:22:16.432Z,35.80
2022-10-23T17:24:47.459Z,39.95
2022-10-23T17:27:19.538Z,38.00
2022-10-23T17:29:48.037Z,48.47
2022-10-23T17:32:17.671Z,46.60
2022-10-23T17:34:46.754Z,41.22
2022-10-23T17:37:15.714Z,40.47
2022-10-23T17:39:44.011Z,39.75
2022-10-23T17:42:13.458Z,39.97
2022-10-23T17:44:41.456Z,38.83
2022-10-23T17:47:09.482Z,38.53
2022-10-23T17:49:40.635Z,37.30
2022-10-23T17:52:14.744Z,37.50
2022-10-23T17:54:42.771Z,37.05
2022-10-23T17:57:18.051Z,34.00
2022-10-23T17:59:46.364Z,35.03
2022-10-23T18:02:14.909Z,35.53
2022-10-23T18:04:46.319Z,31.77
2022-10-23T18:07:16.027Z,29.77
2022-10-23T18:09:45.563Z,34.13
2022-10-23T18:12:14.105Z,33.42
2022-10-23T18:14:43.371Z,31.08
2022-10-23T18:17:11.833Z,27.45
2022-10-23T18:19:40.507Z,30.35
2022-10-23T18:22:09.415Z,27.33
2022-10-23T18:24:39.604Z,24.52
2022-10-23T18:27:08.010Z,18.10
2022-10-23T18:29:36.335Z,16.15
2022-10-23T18:32:05.275Z,14.95
2022-10-23T18:34:33.938Z,13.57
2022-10-23T18:37:03.136Z,13.25
2022-10-23T18:39:34.753Z,11.15
2022-10-23T18:42:02.977Z,9.70
2022-10-23T18:44:30.948Z,11.38
2022-10-23T18:47:00.253Z,11.37
2022-10-23T18:49:29.459Z,12.15
2022-10-23T18:51:58.822Z,11.43
2022-10-23T18:54:26.915Z,11.63
2022-10-23T18:56:56.062Z,9.70
2022-10-23T18:59:24.895Z,10.83
2022-10-23T19:01:55.133Z,10.00
2022-10-23T19:04:24.440Z,10.25
2022-10-23T19:06:53.382Z,31.98
2022-10-23T19:09:22.555Z,11.23
2022-10-23T19:11:50.537Z,6.67
2022-10-23T19:14:19.522Z,5.47
2022-10-23T19:16:54.674Z,6.12
2022-10-23T19:19:27.031Z,5.43
2022-10-23T19:21:55.787Z,5.45
2022-10-23T19:24:32.442Z,5.40
2022-10-23T19:27:01.852Z,6.32
2022-10-23T19:29:31.469Z,5.62
2022-10-23T19:32:00.785Z,5.53
2022-10-23T19:34:29.655Z,5.50
2022-10-23T19:36:58.036Z,5.57
2022-10-23T19:39:27.157Z,5.70
2022-10-23T19:41:58.550Z,5.72
2022-10-23T19:44:26.953Z,5.65
2022-10-23T19:46:55.083Z,5.87
2022-10-23T19:49:24.325Z,5.43
2022-10-23T19:51:53.423Z,5.75
2022-10-23T19:54:22.312Z,6.00
2022-10-23T19:56:53.488Z,5.85
2022-10-23T19:59:21.914Z,5.80
2022-10-23T20:01:50.550Z,6.33
2022-10-23T20:04:19.135Z,5.18
2022-10-23T20:06:47.999Z,5.97
2022-10-23T20:09:16.286Z,6.28
2022-10-23T20:11:45.630Z,6.15
2022-10-23T20:14:13.767Z,6.07
2022-10-23T20:16:45.295Z,6.00
2022-10-23T20:21:49.815Z,13.18
2022-10-23T20:24:19.888Z,6.40
2022-10-23T20:26:50.535Z,5.60
2022-10-23T20:29:18.807Z,5.70
2022-10-23T20:31:46.570Z,5.57
2022-10-23T20:34:14.869Z,7.05
2022-10-23T20:36:46.753Z,8.35
2022-10-23T20:39:26.042Z,7.67
2022-10-23T20:41:55.869Z,8.90
2022-10-23T20:44:24.257Z,6.55
2022-10-23T20:46:55.276Z,6.97
2022-10-23T20:49:23.789Z,5.70
2022-10-23T20:51:56.194Z,6.27
2022-10-23T20:54:25.598Z,6.28
2022-10-23T20:56:52.828Z,6.35
2022-10-23T20:59:19.825Z,6.45
2022-10-23T21:01:53.440Z,7.68
2022-10-23T21:04:24.443Z,9.17
2022-10-23T21:07:10.300Z,9.23
2022-10-23T21:09:40.650Z,8.63
2022-10-23T21:12:08.394Z,8.30
2022-10-23T21:14:35.862Z,8.80
2022-10-23T21:17:03.075Z,8.27
2022-10-23T21:19:29.810Z,8.00
2022-10-23T21:21:56.741Z,8.05
2022-10-23T21:24:24.653Z,7.47
2022-10-23T21:26:51.619Z,7.20
2022-10-23T21:29:19.819Z,7.00
2022-10-23T21:31:59.385Z,7.80
2022-10-23T21:34:27.171Z,7.30
2022-10-23T21:37:12.050Z,7.22
2022-10-23T21:39:40.679Z,6.18
2022-10-23T21:42:07.890Z,6.23
2022-10-23T21:44:34.735Z,5.20
2022-10-23T21:47:01.930Z,6.18
2022-10-23T21:49:29.026Z,5.95
2022-10-23T21:51:55.896Z,7.12
2022-10-23T21:54:22.808Z,5.60
2022-10-23T21:56:51.359Z,5.72
2022-10-23T21:59:20.885Z,6.40
2022-10-23T22:01:48.933Z,5.87
2022-10-23T22:04:17.483Z,6.10
2022-10-23T22:06:46.298Z,5.63
2022-10-23T22:09:15.541Z,5.82
2022-10-23T22:11:43.091Z,5.47
2022-10-23T22:14:10.024Z,6.18
2022-10-23T22:16:37.319Z,6.00
2022-10-23T22:19:04.511Z,7.93
2022-10-23T22:21:31.702Z,7.93
2022-10-23T22:24:00.330Z,7.70
2022-10-23T22:26:49.311Z,6.20
2022-10-23T22:29:23.514Z,6.25
2022-10-23T22:31:50.850Z,6.57
2022-10-23T22:34:28.735Z,6.90
2022-10-23T22:37:10.966Z,7.65
2022-10-23T22:39:38.468Z,7.00
2022-10-23T22:42:05.402Z,7.50
2022-10-23T22:44:32.143Z,7.23
2022-10-23T22:46:59.036Z,8.73
2022-10-23T22:49:25.970Z,8.13
2022-10-23T22:51:52.897Z,8.38
2022-10-23T22:54:19.682Z,8.23
2022-10-23T22:56:46.498Z,8.13
2022-10-23T22:59:13.222Z,8.65
2022-10-23T23:01:43.846Z,7.78
2022-10-23T23:07:10.029Z,8.18
2022-10-23T23:09:41.956Z,8.57
2022-10-23T23:12:11.128Z,8.38
2022-10-23T23:14:38.292Z,8.15
2022-10-23T23:17:07.018Z,8.40
2022-10-23T23:19:34.298Z,8.30
2022-10-23T23:22:01.389Z,7.83
2022-10-23T23:24:28.256Z,7.87
2022-10-23T23:26:55.083Z,8.10
2022-10-23T23:29:22.083Z,8.13
2022-10-23T23:31:51.240Z,8.75
2022-10-23T23:34:18.081Z,8.33
2022-10-23T23:36:45.022Z,8.85
2022-10-23T23:39:11.902Z,8.65
2022-10-23T23:41:38.646Z,8.15
2022-10-23T23:44:05.740Z,8.55
2022-10-23T23:46:32.514Z,8.73
2022-10-23T23:48:59.385Z,8.65
2022-10-23T23:51:26.312Z,8.57
2022-10-23T23:53:53.619Z,9.00
2022-10-23T23:56:20.883Z,9.05
2022-10-23T23:58:47.819Z,9.00
